sensor_id;sensor_type;location;lat;lon;timestamp;P1;durP1;ratioP1;P2;durP2;ratioP2
6566;SDS011;3317;43.994;22.878;2022-12-26T00:01:34;13.30;;;7.83;;
6566;SDS011;3317;43.994;22.878;2022-12-26T00:04:03;10.27;;;7.00;;
6566;SDS011;3317;43.994;22.878;2022-12-26T00:06:32;8.80;;;6.80;;
6566;SDS011;3317;43.994;22.878;2022-12-26T00:08:59;11.00;;;7.80;;
6566;SDS011;3317;43.994;22.878;2022-12-26T00:11:28;11.10;;;7.37;;
6566;SDS011;3317;43.994;22.878;2022-12-26T00:13:55;12.00;;;7.27;;
6566;SDS011;3317;43.994;22.878;2022-12-26T00:16:24;10.57;;;7.40;;
6566;SDS011;3317;43.994;22.878;2022-12-26T00:18:51;12.77;;;8.03;;
6566;SDS011;3317;43.994;22.878;2022-12-26T00:21:19;10.73;;;7.83;;
6566;SDS011;3317;43.994;22.878;2022-12-26T00:23:48;13.63;;;7.77;;
6566;SDS011;3317;43.994;22.878;2022-12-26T00:26:15;12.80;;;7.47;;
6566;SDS011;3317;43.994;22.878;2022-12-26T00:28:44;14.13;;;8.53;;
6566;SDS011;3317;43.994;22.878;2022-12-26T00:31:12;13.63;;;8.13;;
6566;SDS011;3317;43.994;22.878;2022-12-26T00:33:41;17.60;;;9.13;;
6566;SDS011;3317;43.994;22.878;2022-12-26T00:36:09;14.27;;;9.03;;
6566;SDS011;3317;43.994;22.878;2022-12-26T00:38:38;13.60;;;8.50;;
6566;SDS011;3317;43.994;22.878;2022-12-26T00:41:07;11.50;;;7.33;;
6566;SDS011;3317;43.994;22.878;2022-12-26T00:43:36;12.70;;;8.30;;
6566;SDS011;3317;43.994;22.878;2022-12-26T00:46:03;11.80;;;6.83;;
6566;SDS011;3317;43.994;22.878;2022-12-26T00:48:31;14.23;;;8.20;;
6566;SDS011;3317;43.994;22.878;2022-12-26T00:50:58;13.47;;;8.53;;
6566;SDS011;3317;43.994;22.878;2022-12-26T00:53:25;15.33;;;8.63;;
6566;SDS011;3317;43.994;22.878;2022-12-26T00:55:52;12.33;;;7.63;;
6566;SDS011;3317;43.994;22.878;2022-12-26T00:58:21;13.20;;;9.20;;
6566;SDS011;3317;43.994;22.878;2022-12-26T01:00:48;13.13;;;8.17;;
6566;SDS011;3317;43.994;22.878;2022-12-26T01:03:15;12.60;;;8.73;;
6566;SDS011;3317;43.994;22.878;2022-12-26T01:05:44;11.57;;;7.37;;
6566;SDS011;3317;43.994;22.878;2022-12-26T01:08:12;10.97;;;7.00;;
6566;SDS011;3317;43.994;22.878;2022-12-26T01:10:39;11.10;;;7.20;;
6566;SDS011;3317;43.994;22.878;2022-12-26T01:13:06;13.13;;;8.40;;
6566;SDS011;3317;43.994;22.878;2022-12-26T01:15:35;12.50;;;8.13;;
6566;SDS011;3317;43.994;22.878;2022-12-26T01:18:02;10.27;;;6.60;;
6566;SDS011;3317;43.994;22.878;2022-12-26T01:20:29;10.93;;;6.87;;
6566;SDS011;3317;43.994;22.878;2022-12-26T01:22:56;11.07;;;7.60;;
6566;SDS011;3317;43.994;22.878;2022-12-26T01:25:23;9.53;;;6.20;;
6566;SDS011;3317;43.994;22.878;2022-12-26T01:27:50;11.57;;;6.67;;
6566;SDS011;3317;43.994;22.878;2022-12-26T01:30:17;11.40;;;6.00;;
6566;SDS011;3317;43.994;22.878;2022-12-26T01:32:45;7.93;;;5.13;;
6566;SDS011;3317;43.994;22.878;2022-12-26T01:35:12;11.47;;;7.70;;
6566;SDS011;3317;43.994;22.878;2022-12-26T01:37:39;13.30;;;8.37;;
6566;SDS011;3317;43.994;22.878;2022-12-26T01:40:06;15.63;;;9.80;;
6566;SDS011;3317;43.994;22.878;2022-12-26T01:42:35;17.03;;;9.83;;
6566;SDS011;3317;43.994;22.878;2022-12-26T01:45:04;11.30;;;7.57;;
6566;SDS011;3317;43.994;22.878;2022-12-26T01:47:40;14.97;;;10.20;;
6566;SDS011;3317;43.994;22.878;2022-12-26T01:50:16;13.30;;;8.63;;
6566;SDS011;3317;43.994;22.878;2022-12-26T01:52:53;15.27;;;9.07;;
6566;SDS011;3317;43.994;22.878;2022-12-26T01:55:23;14.60;;;8.90;;
6566;SDS011;3317;43.994;22.878;2022-12-26T01:57:52;13.70;;;8.50;;
6566;SDS011;3317;43.994;22.878;2022-12-26T02:00:22;13.80;;;8.97;;
6566;SDS011;3317;43.994;22.878;2022-12-26T02:02:49;16.10;;;9.70;;
6566;SDS011;3317;43.994;22.878;2022-12-26T02:05:35;20.43;;;11.90;;
6566;SDS011;3317;43.994;22.878;2022-12-26T02:08:03;20.27;;;12.80;;
6566;SDS011;3317;43.994;22.878;2022-12-26T02:10:35;24.87;;;13.43;;
6566;SDS011;3317;43.994;22.878;2022-12-26T02:13:08;22.03;;;13.10;;
6566;SDS011;3317;43.994;22.878;2022-12-26T02:15:35;24.87;;;14.63;;
6566;SDS011;3317;43.994;22.878;2022-12-26T02:18:03;21.43;;;12.80;;
6566;SDS011;3317;43.994;22.878;2022-12-26T02:20:31;18.63;;;12.30;;
6566;SDS011;3317;43.994;22.878;2022-12-26T02:23:31;20.73;;;13.23;;
6566;SDS011;3317;43.994;22.878;2022-12-26T02:26:23;23.27;;;13.30;;
6566;SDS011;3317;43.994;22.878;2022-12-26T02:32:08;24.63;;;13.70;;
6566;SDS011;3317;43.994;22.878;2022-12-26T02:34:42;21.40;;;12.97;;
6566;SDS011;3317;43.994;22.878;2022-12-26T02:37:21;11.43;;;7.60;;
6566;SDS011;3317;43.994;22.878;2022-12-26T02:40:03;12.70;;;8.57;;
6566;SDS011;3317;43.994;22.878;2022-12-26T02:42:47;17.07;;;11.30;;
6566;SDS011;3317;43.994;22.878;2022-12-26T02:45:24;17.77;;;11.37;;
6566;SDS011;3317;43.994;22.878;2022-12-26T02:48:18;13.13;;;8.80;;
6566;SDS011;3317;43.994;22.878;2022-12-26T02:50:53;21.07;;;13.80;;
6566;SDS011;3317;43.994;22.878;2022-12-26T02:53:51;27.30;;;17.10;;
6566;SDS011;3317;43.994;22.878;2022-12-26T02:56:45;28.00;;;16.57;;
6566;SDS011;3317;43.994;22.878;2022-12-26T02:59:38;27.40;;;16.80;;
6566;SDS011;3317;43.994;22.878;2022-12-26T03:02:29;8.37;;;6.20;;
6566;SDS011;3317;43.994;22.878;2022-12-26T03:05:20;20.60;;;11.53;;
6566;SDS011;3317;43.994;22.878;2022-12-26T03:08:11;45.13;;;26.57;;
6566;SDS011;3317;43.994;22.878;2022-12-26T03:10:59;36.53;;;22.63;;
6566;SDS011;3317;43.994;22.878;2022-12-26T03:13:44;33.03;;;19.00;;
6566;SDS011;3317;43.994;22.878;2022-12-26T03:16:13;34.27;;;21.40;;
6566;SDS011;3317;43.994;22.878;2022-12-26T03:19:00;34.83;;;23.23;;
6566;SDS011;3317;43.994;22.878;2022-12-26T03:21:32;39.10;;;26.53;;
6566;SDS011;3317;43.994;22.878;2022-12-26T03:24:04;69.37;;;44.10;;
6566;SDS011;3317;43.994;22.878;2022-12-26T03:26:36;85.67;;;44.40;;
6566;SDS011;3317;43.994;22.878;2022-12-26T03:29:04;85.77;;;45.00;;
6566;SDS011;3317;43.994;22.878;2022-12-26T03:31:51;73.50;;;39.10;;
6566;SDS011;3317;43.994;22.878;2022-12-26T03:34:18;68.83;;;34.10;;
6566;SDS011;3317;43.994;22.878;2022-12-26T03:36:55;51.00;;;26.53;;
6566;SDS011;3317;43.994;22.878;2022-12-26T03:39:37;52.07;;;29.60;;
6566;SDS011;3317;43.994;22.878;2022-12-26T03:42:31;51.37;;;25.67;;
6566;SDS011;3317;43.994;22.878;2022-12-26T03:45:25;26.53;;;15.77;;
6566;SDS011;3317;43.994;22.878;2022-12-26T03:48:18;20.87;;;14.67;;
6566;SDS011;3317;43.994;22.878;2022-12-26T03:51:12;16.97;;;11.80;;
6566;SDS011;3317;43.994;22.878;2022-12-26T03:54:04;15.63;;;10.70;;
6566;SDS011;3317;43.994;22.878;2022-12-26T03:56:54;15.90;;;10.70;;
6566;SDS011;3317;43.994;22.878;2022-12-26T03:59:44;17.27;;;10.40;;
6566;SDS011;3317;43.994;22.878;2022-12-26T04:02:33;16.60;;;10.60;;
6566;SDS011;3317;43.994;22.878;2022-12-26T04:05:21;17.53;;;10.07;;
6566;SDS011;3317;43.994;22.878;2022-12-26T04:08:11;17.30;;;10.57;;
6566;SDS011;3317;43.994;22.878;2022-12-26T04:11:00;13.50;;;8.60;;
6566;SDS011;3317;43.994;22.878;2022-12-26T04:13:49;9.50;;;7.10;;
6566;SDS011;3317;43.994;22.878;2022-12-26T04:16:38;8.50;;;6.60;;
6566;SDS011;3317;43.994;22.878;2022-12-26T04:19:35;12.27;;;8.00;;
6566;SDS011;3317;43.994;22.878;2022-12-26T04:22:16;14.87;;;10.43;;
6566;SDS011;3317;43.994;22.878;2022-12-26T04:25:08;15.40;;;9.40;;
6566;SDS011;3317;43.994;22.878;2022-12-26T04:27:58;15.17;;;9.37;;
6566;SDS011;3317;43.994;22.878;2022-12-26T04:30:43;14.00;;;9.10;;
6566;SDS011;3317;43.994;22.878;2022-12-26T04:33:34;19.00;;;10.40;;
6566;SDS011;3317;43.994;22.878;2022-12-26T04:36:25;21.27;;;12.97;;
6566;SDS011;3317;43.994;22.878;2022-12-26T04:39:15;21.07;;;14.07;;
6566;SDS011;3317;43.994;22.878;2022-12-26T04:42:03;17.20;;;12.17;;
6566;SDS011;3317;43.994;22.878;2022-12-26T04:44:50;20.87;;;12.47;;
6566;SDS011;3317;43.994;22.878;2022-12-26T04:47:18;14.10;;;11.60;;
6566;SDS011;3317;43.994;22.878;2022-12-26T04:49:45;14.00;;;9.80;;
6566;SDS011;3317;43.994;22.878;2022-12-26T04:52:29;8.00;;;5.93;;
6566;SDS011;3317;43.994;22.878;2022-12-26T04:55:10;7.80;;;6.00;;
6566;SDS011;3317;43.994;22.878;2022-12-26T04:57:37;12.97;;;9.33;;
6566;SDS011;3317;43.994;22.878;2022-12-26T05:00:06;11.40;;;8.07;;
6566;SDS011;3317;43.994;22.878;2022-12-26T05:02:34;16.63;;;11.83;;
6566;SDS011;3317;43.994;22.878;2022-12-26T05:05:19;17.57;;;11.80;;
6566;SDS011;3317;43.994;22.878;2022-12-26T05:08:04;16.47;;;11.60;;
6566;SDS011;3317;43.994;22.878;2022-12-26T05:10:57;15.57;;;10.60;;
6566;SDS011;3317;43.994;22.878;2022-12-26T05:13:24;18.60;;;12.60;;
6566;SDS011;3317;43.994;22.878;2022-12-26T05:15:52;23.80;;;13.90;;
6566;SDS011;3317;43.994;22.878;2022-12-26T05:18:36;28.80;;;18.17;;
6566;SDS011;3317;43.994;22.878;2022-12-26T05:21:20;28.80;;;18.17;;
6566;SDS011;3317;43.994;22.878;2022-12-26T05:24:06;40.23;;;22.50;;
6566;SDS011;3317;43.994;22.878;2022-12-26T05:26:57;37.97;;;22.77;;
6566;SDS011;3317;43.994;22.878;2022-12-26T05:29:42;40.53;;;27.00;;
6566;SDS011;3317;43.994;22.878;2022-12-26T05:32:10;36.90;;;25.27;;
6566;SDS011;3317;43.994;22.878;2022-12-26T05:34:37;33.43;;;23.07;;
6566;SDS011;3317;43.994;22.878;2022-12-26T05:37:03;36.77;;;24.63;;
6566;SDS011;3317;43.994;22.878;2022-12-26T05:39:30;31.77;;;21.07;;
6566;SDS011;3317;43.994;22.878;2022-12-26T05:41:57;34.50;;;20.90;;
6566;SDS011;3317;43.994;22.878;2022-12-26T05:44:24;27.20;;;17.43;;
6566;SDS011;3317;43.994;22.878;2022-12-26T05:46:51;29.17;;;19.13;;
6566;SDS011;3317;43.994;22.878;2022-12-26T05:49:19;33.97;;;22.17;;
6566;SDS011;3317;43.994;22.878;2022-12-26T05:51:46;22.50;;;16.63;;
6566;SDS011;3317;43.994;22.878;2022-12-26T05:54:13;26.53;;;18.00;;
6566;SDS011;3317;43.994;22.878;2022-12-26T05:56:40;28.97;;;19.27;;
6566;SDS011;3317;43.994;22.878;2022-12-26T05:59:08;25.30;;;17.70;;
6566;SDS011;3317;43.994;22.878;2022-12-26T06:01:35;29.07;;;20.30;;
6566;SDS011;3317;43.994;22.878;2022-12-26T06:04:02;28.07;;;20.00;;
6566;SDS011;3317;43.994;22.878;2022-12-26T06:06:30;24.87;;;17.87;;
6566;SDS011;3317;43.994;22.878;2022-12-26T06:08:57;37.40;;;25.80;;
6566;SDS011;3317;43.994;22.878;2022-12-26T06:11:24;20.37;;;14.80;;
6566;SDS011;3317;43.994;22.878;2022-12-26T06:13:51;31.60;;;20.50;;
6566;SDS011;3317;43.994;22.878;2022-12-26T06:16:18;28.43;;;18.40;;
6566;SDS011;3317;43.994;22.878;2022-12-26T06:18:46;22.70;;;14.47;;
6566;SDS011;3317;43.994;22.878;2022-12-26T06:21:15;23.90;;;14.17;;
6566;SDS011;3317;43.994;22.878;2022-12-26T06:23:45;21.13;;;14.53;;
6566;SDS011;3317;43.994;22.878;2022-12-26T06:26:11;18.33;;;11.37;;
6566;SDS011;3317;43.994;22.878;2022-12-26T06:28:39;14.80;;;10.93;;
6566;SDS011;3317;43.994;22.878;2022-12-26T06:31:08;21.90;;;12.47;;
6566;SDS011;3317;43.994;22.878;2022-12-26T06:33:38;17.77;;;11.83;;
6566;SDS011;3317;43.994;22.878;2022-12-26T06:36:06;22.83;;;14.43;;
6566;SDS011;3317;43.994;22.878;2022-12-26T06:38:36;25.33;;;15.83;;
6566;SDS011;3317;43.994;22.878;2022-12-26T06:41:04;30.03;;;17.70;;
6566;SDS011;3317;43.994;22.878;2022-12-26T06:43:32;31.63;;;17.80;;
6566;SDS011;3317;43.994;22.878;2022-12-26T06:45:59;39.07;;;24.77;;
6566;SDS011;3317;43.994;22.878;2022-12-26T06:48:27;35.00;;;21.20;;
6566;SDS011;3317;43.994;22.878;2022-12-26T06:50:54;34.20;;;20.70;;
6566;SDS011;3317;43.994;22.878;2022-12-26T06:53:21;30.20;;;20.00;;
6566;SDS011;3317;43.994;22.878;2022-12-26T06:55:49;29.20;;;19.57;;
6566;SDS011;3317;43.994;22.878;2022-12-26T06:58:18;31.03;;;20.50;;
6566;SDS011;3317;43.994;22.878;2022-12-26T07:00:45;30.10;;;20.30;;
6566;SDS011;3317;43.994;22.878;2022-12-26T07:03:12;38.67;;;24.50;;
6566;SDS011;3317;43.994;22.878;2022-12-26T07:05:39;39.83;;;24.30;;
6566;SDS011;3317;43.994;22.878;2022-12-26T07:08:06;38.20;;;22.47;;
6566;SDS011;3317;43.994;22.878;2022-12-26T07:10:33;36.73;;;22.20;;
6566;SDS011;3317;43.994;22.878;2022-12-26T07:13:01;45.33;;;28.97;;
6566;SDS011;3317;43.994;22.878;2022-12-26T07:15:29;105.00;;;56.63;;
6566;SDS011;3317;43.994;22.878;2022-12-26T07:17:56;89.17;;;48.43;;
6566;SDS011;3317;43.994;22.878;2022-12-26T07:20:23;75.53;;;44.53;;
6566;SDS011;3317;43.994;22.878;2022-12-26T07:22:50;61.03;;;34.30;;
6566;SDS011;3317;43.994;22.878;2022-12-26T07:25:17;62.97;;;34.13;;
6566;SDS011;3317;43.994;22.878;2022-12-26T07:27:44;61.87;;;38.70;;
6566;SDS011;3317;43.994;22.878;2022-12-26T07:30:11;60.20;;;38.30;;
6566;SDS011;3317;43.994;22.878;2022-12-26T07:32:39;70.90;;;42.37;;
6566;SDS011;3317;43.994;22.878;2022-12-26T07:35:07;61.67;;;36.53;;
6566;SDS011;3317;43.994;22.878;2022-12-26T07:37:34;63.13;;;33.70;;
6566;SDS011;3317;43.994;22.878;2022-12-26T07:40:01;42.33;;;23.20;;
6566;SDS011;3317;43.994;22.878;2022-12-26T07:42:29;64.20;;;37.10;;
6566;SDS011;3317;43.994;22.878;2022-12-26T07:44:56;48.63;;;27.80;;
6566;SDS011;3317;43.994;22.878;2022-12-26T07:47:22;50.10;;;27.20;;
6566;SDS011;3317;43.994;22.878;2022-12-26T07:49:51;48.93;;;28.10;;
6566;SDS011;3317;43.994;22.878;2022-12-26T07:52:18;43.90;;;26.70;;
6566;SDS011;3317;43.994;22.878;2022-12-26T07:54:45;37.37;;;24.87;;
6566;SDS011;3317;43.994;22.878;2022-12-26T07:57:12;44.87;;;26.60;;
6566;SDS011;3317;43.994;22.878;2022-12-26T07:59:39;31.20;;;19.70;;
6566;SDS011;3317;43.994;22.878;2022-12-26T08:02:07;31.03;;;21.20;;
6566;SDS011;3317;43.994;22.878;2022-12-26T08:04:35;33.13;;;20.47;;
6566;SDS011;3317;43.994;22.878;2022-12-26T08:07:03;31.20;;;21.40;;
6566;SDS011;3317;43.994;22.878;2022-12-26T08:09:30;34.77;;;21.80;;
6566;SDS011;3317;43.994;22.878;2022-12-26T08:11:57;30.90;;;18.20;;
6566;SDS011;3317;43.994;22.878;2022-12-26T08:14:24;35.23;;;21.73;;
6566;SDS011;3317;43.994;22.878;2022-12-26T08:16:50;36.30;;;24.27;;
6566;SDS011;3317;43.994;22.878;2022-12-26T08:19:17;43.10;;;27.53;;
6566;SDS011;3317;43.994;22.878;2022-12-26T08:21:44;40.87;;;26.40;;
6566;SDS011;3317;43.994;22.878;2022-12-26T08:24:12;45.60;;;27.87;;
6566;SDS011;3317;43.994;22.878;2022-12-26T08:26:40;60.93;;;34.07;;
6566;SDS011;3317;43.994;22.878;2022-12-26T08:29:07;52.20;;;32.67;;
6566;SDS011;3317;43.994;22.878;2022-12-26T08:31:36;52.57;;;33.13;;
6566;SDS011;3317;43.994;22.878;2022-12-26T08:34:03;57.40;;;33.77;;
6566;SDS011;3317;43.994;22.878;2022-12-26T08:36:30;52.10;;;33.60;;
6566;SDS011;3317;43.994;22.878;2022-12-26T08:38:57;52.93;;;32.37;;
6566;SDS011;3317;43.994;22.878;2022-12-26T08:41:25;50.97;;;30.57;;
6566;SDS011;3317;43.994;22.878;2022-12-26T08:43:52;45.03;;;28.33;;
6566;SDS011;3317;43.994;22.878;2022-12-26T08:46:19;43.40;;;27.40;;
6566;SDS011;3317;43.994;22.878;2022-12-26T08:48:47;42.33;;;27.67;;
6566;SDS011;3317;43.994;22.878;2022-12-26T08:51:15;44.33;;;27.13;;
6566;SDS011;3317;43.994;22.878;2022-12-26T08:53:44;34.90;;;23.80;;
6566;SDS011;3317;43.994;22.878;2022-12-26T08:56:12;34.00;;;21.10;;
6566;SDS011;3317;43.994;22.878;2022-12-26T08:58:42;31.60;;;19.90;;
6566;SDS011;3317;43.994;22.878;2022-12-26T09:01:10;30.53;;;19.80;;
6566;SDS011;3317;43.994;22.878;2022-12-26T09:03:39;31.93;;;19.10;;
6566;SDS011;3317;43.994;22.878;2022-12-26T09:06:08;35.50;;;20.97;;
6566;SDS011;3317;43.994;22.878;2022-12-26T09:08:36;25.27;;;16.77;;
6566;SDS011;3317;43.994;22.878;2022-12-26T09:11:03;30.03;;;18.27;;
6566;SDS011;3317;43.994;22.878;2022-12-26T09:13:32;24.27;;;15.60;;
6566;SDS011;3317;43.994;22.878;2022-12-26T09:16:05;24.17;;;15.00;;
6566;SDS011;3317;43.994;22.878;2022-12-26T09:18:33;25.60;;;15.73;;
6566;SDS011;3317;43.994;22.878;2022-12-26T09:21:00;27.37;;;17.07;;
6566;SDS011;3317;43.994;22.878;2022-12-26T09:23:28;29.60;;;15.23;;
6566;SDS011;3317;43.994;22.878;2022-12-26T09:25:55;28.20;;;15.40;;
6566;SDS011;3317;43.994;22.878;2022-12-26T09:28:30;29.40;;;16.80;;
6566;SDS011;3317;43.994;22.878;2022-12-26T09:30:58;27.47;;;16.53;;
6566;SDS011;3317;43.994;22.878;2022-12-26T09:33:27;28.73;;;16.10;;
6566;SDS011;3317;43.994;22.878;2022-12-26T09:35:54;25.90;;;15.97;;
6566;SDS011;3317;43.994;22.878;2022-12-26T09:38:21;26.00;;;14.97;;
6566;SDS011;3317;43.994;22.878;2022-12-26T09:40:52;29.07;;;17.30;;
6566;SDS011;3317;43.994;22.878;2022-12-26T09:43:30;22.90;;;14.43;;
6566;SDS011;3317;43.994;22.878;2022-12-26T09:46:11;23.80;;;14.47;;
6566;SDS011;3317;43.994;22.878;2022-12-26T09:48:44;26.53;;;15.10;;
6566;SDS011;3317;43.994;22.878;2022-12-26T09:51:17;28.17;;;17.77;;
6566;SDS011;3317;43.994;22.878;2022-12-26T09:53:44;29.17;;;18.63;;
6566;SDS011;3317;43.994;22.878;2022-12-26T09:56:13;34.57;;;19.00;;
6566;SDS011;3317;43.994;22.878;2022-12-26T09:58:43;31.73;;;19.00;;
6566;SDS011;3317;43.994;22.878;2022-12-26T10:01:14;30.07;;;19.43;;
6566;SDS011;3317;43.994;22.878;2022-12-26T10:03:46;32.90;;;20.43;;
6566;SDS011;3317;43.994;22.878;2022-12-26T10:06:15;39.70;;;21.70;;
6566;SDS011;3317;43.994;22.878;2022-12-26T10:11:48;33.17;;;20.80;;
6566;SDS011;3317;43.994;22.878;2022-12-26T10:14:25;39.47;;;24.43;;
6566;SDS011;3317;43.994;22.878;2022-12-26T10:17:02;40.03;;;24.33;;
6566;SDS011;3317;43.994;22.878;2022-12-26T10:19:40;39.70;;;23.77;;
6566;SDS011;3317;43.994;22.878;2022-12-26T10:22:21;37.80;;;24.23;;
6566;SDS011;3317;43.994;22.878;2022-12-26T10:25:07;39.90;;;23.53;;
6566;SDS011;3317;43.994;22.878;2022-12-26T10:27:41;34.40;;;21.60;;
6566;SDS011;3317;43.994;22.878;2022-12-26T10:30:14;33.50;;;20.30;;
6566;SDS011;3317;43.994;22.878;2022-12-26T10:32:45;36.23;;;22.87;;
6566;SDS011;3317;43.994;22.878;2022-12-26T10:35:21;32.03;;;19.17;;
6566;SDS011;3317;43.994;22.878;2022-12-26T10:37:53;31.67;;;20.70;;
6566;SDS011;3317;43.994;22.878;2022-12-26T10:40:29;32.27;;;21.47;;
6566;SDS011;3317;43.994;22.878;2022-12-26T10:43:03;37.00;;;24.00;;
6566;SDS011;3317;43.994;22.878;2022-12-26T10:45:44;39.43;;;24.57;;
6566;SDS011;3317;43.994;22.878;2022-12-26T10:48:19;38.60;;;23.63;;
6566;SDS011;3317;43.994;22.878;2022-12-26T10:50:48;40.73;;;25.07;;
6566;SDS011;3317;43.994;22.878;2022-12-26T10:53:15;36.93;;;23.87;;
6566;SDS011;3317;43.994;22.878;2022-12-26T10:55:42;39.47;;;24.30;;
6566;SDS011;3317;43.994;22.878;2022-12-26T10:58:13;36.20;;;23.70;;
6566;SDS011;3317;43.994;22.878;2022-12-26T11:00:43;42.03;;;25.10;;
6566;SDS011;3317;43.994;22.878;2022-12-26T11:03:11;40.07;;;26.73;;
6566;SDS011;3317;43.994;22.878;2022-12-26T11:05:39;40.67;;;23.30;;
6566;SDS011;3317;43.994;22.878;2022-12-26T11:08:14;37.07;;;23.60;;
6566;SDS011;3317;43.994;22.878;2022-12-26T11:10:44;41.80;;;25.30;;
6566;SDS011;3317;43.994;22.878;2022-12-26T11:13:27;39.23;;;24.23;;
6566;SDS011;3317;43.994;22.878;2022-12-26T11:16:00;39.40;;;24.83;;
6566;SDS011;3317;43.994;22.878;2022-12-26T11:18:31;39.97;;;25.50;;
6566;SDS011;3317;43.994;22.878;2022-12-26T11:21:10;41.23;;;24.50;;
6566;SDS011;3317;43.994;22.878;2022-12-26T11:23:40;38.97;;;24.67;;
6566;SDS011;3317;43.994;22.878;2022-12-26T11:26:17;43.50;;;26.33;;
6566;SDS011;3317;43.994;22.878;2022-12-26T11:28:47;46.00;;;25.70;;
6566;SDS011;3317;43.994;22.878;2022-12-26T11:31:29;39.37;;;24.87;;
6566;SDS011;3317;43.994;22.878;2022-12-26T11:33:57;40.67;;;23.77;;
6566;SDS011;3317;43.994;22.878;2022-12-26T11:36:26;42.80;;;25.33;;
6566;SDS011;3317;43.994;22.878;2022-12-26T11:38:56;45.07;;;25.43;;
6566;SDS011;3317;43.994;22.878;2022-12-26T11:41:33;32.40;;;20.73;;
6566;SDS011;3317;43.994;22.878;2022-12-26T11:44:12;30.67;;;18.57;;
6566;SDS011;3317;43.994;22.878;2022-12-26T11:46:43;28.50;;;18.60;;
6566;SDS011;3317;43.994;22.878;2022-12-26T11:49:16;27.60;;;17.53;;
6566;SDS011;3317;43.994;22.878;2022-12-26T11:51:47;28.53;;;18.07;;
6566;SDS011;3317;43.994;22.878;2022-12-26T11:54:20;24.40;;;17.57;;
6566;SDS011;3317;43.994;22.878;2022-12-26T11:57:01;28.83;;;19.27;;
6566;SDS011;3317;43.994;22.878;2022-12-26T11:59:37;30.37;;;17.77;;
6566;SDS011;3317;43.994;22.878;2022-12-26T12:02:18;30.10;;;19.20;;
6566;SDS011;3317;43.994;22.878;2022-12-26T12:04:50;32.70;;;20.10;;
6566;SDS011;3317;43.994;22.878;2022-12-26T12:07:25;25.80;;;18.60;;
6566;SDS011;3317;43.994;22.878;2022-12-26T12:10:11;36.57;;;19.70;;
6566;SDS011;3317;43.994;22.878;2022-12-26T12:12:57;31.53;;;19.57;;
6566;SDS011;3317;43.994;22.878;2022-12-26T12:15:30;28.73;;;19.27;;
6566;SDS011;3317;43.994;22.878;2022-12-26T12:18:04;27.90;;;18.53;;
6566;SDS011;3317;43.994;22.878;2022-12-26T12:20:38;30.47;;;20.00;;
6566;SDS011;3317;43.994;22.878;2022-12-26T12:23:26;28.90;;;19.37;;
6566;SDS011;3317;43.994;22.878;2022-12-26T12:26:21;37.13;;;23.03;;
6566;SDS011;3317;43.994;22.878;2022-12-26T12:31:55;33.10;;;21.77;;
6566;SDS011;3317;43.994;22.878;2022-12-26T12:34:35;29.53;;;19.60;;
6566;SDS011;3317;43.994;22.878;2022-12-26T12:37:18;28.20;;;18.80;;
6566;SDS011;3317;43.994;22.878;2022-12-26T12:39:56;23.93;;;16.70;;
6566;SDS011;3317;43.994;22.878;2022-12-26T12:42:35;29.30;;;17.20;;
6566;SDS011;3317;43.994;22.878;2022-12-26T12:45:15;26.40;;;17.00;;
6566;SDS011;3317;43.994;22.878;2022-12-26T12:47:54;27.60;;;17.30;;
6566;SDS011;3317;43.994;22.878;2022-12-26T12:50:47;28.57;;;16.80;;
6566;SDS011;3317;43.994;22.878;2022-12-26T12:53:31;32.30;;;19.40;;
6566;SDS011;3317;43.994;22.878;2022-12-26T12:56:14;39.27;;;20.57;;
6566;SDS011;3317;43.994;22.878;2022-12-26T12:58:53;31.37;;;18.63;;
6566;SDS011;3317;43.994;22.878;2022-12-26T13:01:32;26.60;;;18.80;;
6566;SDS011;3317;43.994;22.878;2022-12-26T13:04:02;27.33;;;17.40;;
6566;SDS011;3317;43.994;22.878;2022-12-26T13:06:35;28.50;;;16.90;;
6566;SDS011;3317;43.994;22.878;2022-12-26T13:09:18;30.67;;;19.00;;
6566;SDS011;3317;43.994;22.878;2022-12-26T13:11:50;34.37;;;20.07;;
6566;SDS011;3317;43.994;22.878;2022-12-26T13:14:24;27.17;;;16.80;;
6566;SDS011;3317;43.994;22.878;2022-12-26T13:16:57;30.90;;;19.17;;
6566;SDS011;3317;43.994;22.878;2022-12-26T13:19:29;28.37;;;16.80;;
6566;SDS011;3317;43.994;22.878;2022-12-26T13:22:04;27.53;;;16.97;;
6566;SDS011;3317;43.994;22.878;2022-12-26T13:24:38;27.77;;;18.80;;
6566;SDS011;3317;43.994;22.878;2022-12-26T13:27:09;31.93;;;21.27;;
6566;SDS011;3317;43.994;22.878;2022-12-26T13:29:43;30.30;;;19.30;;
6566;SDS011;3317;43.994;22.878;2022-12-26T13:32:19;28.90;;;19.20;;
6566;SDS011;3317;43.994;22.878;2022-12-26T13:34:48;28.40;;;18.80;;
6566;SDS011;3317;43.994;22.878;2022-12-26T13:40:19;26.43;;;17.00;;
6566;SDS011;3317;43.994;22.878;2022-12-26T13:42:50;30.50;;;19.60;;
6566;SDS011;3317;43.994;22.878;2022-12-26T13:51:41;28.90;;;19.97;;
6566;SDS011;3317;43.994;22.878;2022-12-26T13:54:11;27.87;;;19.13;;
6566;SDS011;3317;43.994;22.878;2022-12-26T13:59:55;33.67;;;21.07;;
6566;SDS011;3317;43.994;22.878;2022-12-26T14:06:02;31.43;;;19.73;;
6566;SDS011;3317;43.994;22.878;2022-12-26T14:08:44;25.87;;;17.10;;
6566;SDS011;3317;43.994;22.878;2022-12-26T14:11:30;26.10;;;17.50;;
6566;SDS011;3317;43.994;22.878;2022-12-26T14:14:10;32.80;;;18.50;;
6566;SDS011;3317;43.994;22.878;2022-12-26T14:16:49;29.30;;;18.07;;
6566;SDS011;3317;43.994;22.878;2022-12-26T14:19:31;34.90;;;21.10;;
6566;SDS011;3317;43.994;22.878;2022-12-26T14:22:10;32.33;;;20.40;;
6566;SDS011;3317;43.994;22.878;2022-12-26T14:24:48;28.57;;;18.47;;
6566;SDS011;3317;43.994;22.878;2022-12-26T14:27:32;29.07;;;18.40;;
6566;SDS011;3317;43.994;22.878;2022-12-26T14:30:16;28.17;;;17.60;;
6566;SDS011;3317;43.994;22.878;2022-12-26T14:32:48;29.33;;;18.73;;
6566;SDS011;3317;43.994;22.878;2022-12-26T14:35:27;30.03;;;19.03;;
6566;SDS011;3317;43.994;22.878;2022-12-26T14:38:03;34.93;;;21.07;;
6566;SDS011;3317;43.994;22.878;2022-12-26T14:40:56;30.23;;;19.37;;
6566;SDS011;3317;43.994;22.878;2022-12-26T14:43:27;33.33;;;20.20;;
6566;SDS011;3317;43.994;22.878;2022-12-26T14:45:57;44.20;;;25.50;;
6566;SDS011;3317;43.994;22.878;2022-12-26T14:51:26;45.27;;;27.73;;
6566;SDS011;3317;43.994;22.878;2022-12-26T14:54:26;36.70;;;22.53;;
6566;SDS011;3317;43.994;22.878;2022-12-26T15:09:30;24.60;;;16.80;;
6566;SDS011;3317;43.994;22.878;2022-12-26T15:12:25;23.30;;;15.80;;
6566;SDS011;3317;43.994;22.878;2022-12-26T15:15:21;24.07;;;14.60;;
6566;SDS011;3317;43.994;22.878;2022-12-26T15:18:04;25.80;;;17.23;;
6566;SDS011;3317;43.994;22.878;2022-12-26T15:27:28;35.97;;;23.50;;
6566;SDS011;3317;43.994;22.878;2022-12-26T15:30:18;43.63;;;26.33;;
6566;SDS011;3317;43.994;22.878;2022-12-26T15:32:53;28.93;;;19.80;;
6566;SDS011;3317;43.994;22.878;2022-12-26T15:35:27;25.70;;;15.93;;
6566;SDS011;3317;43.994;22.878;2022-12-26T15:38:10;23.00;;;14.53;;
6566;SDS011;3317;43.994;22.878;2022-12-26T15:40:52;24.30;;;14.67;;
6566;SDS011;3317;43.994;22.878;2022-12-26T15:43:40;20.93;;;14.43;;
6566;SDS011;3317;43.994;22.878;2022-12-26T15:46:19;21.20;;;14.60;;
6566;SDS011;3317;43.994;22.878;2022-12-26T15:48:56;25.27;;;16.97;;
6566;SDS011;3317;43.994;22.878;2022-12-26T15:51:48;24.87;;;16.53;;
6566;SDS011;3317;43.994;22.878;2022-12-26T15:54:29;78.20;;;38.37;;
6566;SDS011;3317;43.994;22.878;2022-12-26T15:57:22;246.00;;;110.60;;
6566;SDS011;3317;43.994;22.878;2022-12-26T16:00:03;296.57;;;139.47;;
6566;SDS011;3317;43.994;22.878;2022-12-26T16:02:37;242.07;;;116.60;;
6566;SDS011;3317;43.994;22.878;2022-12-26T16:08:16;196.83;;;97.90;;